Time;durP1;ratioP1;P1;durP2;ratioP2;P2;SDS_P1;SDS_P2;PMS_P1;PMS_P2;Temp;Humidity;BMP_temperature;BMP_pressure;BME280_temperature;BME280_humidity;BME280_pressure;Samples;Min_cycle;Max_cycle;Signal;HPM_P1;HPM_P2
2021/07/27 00:01:13;;;;;;;2.60;1.48;;;16.20;99.90;;;;;;5017723;28;20277;-80
2021/07/27 00:03:39;;;;;;;0.98;0.98;;;16.20;99.90;;;;;;5014435;28;20595;-80
2021/07/27 00:06:06;;;;;;;1.65;1.40;;;16.10;99.90;;;;;;5011566;28;20242;-81
2021/07/27 00:08:35;;;;;;;0.50;0.50;;;16.10;99.90;;;;;;5018892;28;20743;-80
2021/07/27 00:11:01;;;;;;;0.43;0.43;;;16.00;99.90;;;;;;5010570;28;20748;-80
2021/07/27 00:13:27;;;;;;;0.98;0.60;;;16.00;99.90;;;;;;5036241;28;20281;-81
2021/07/27 00:15:53;;;;;;;1.88;1.00;;;15.90;99.90;;;;;;5018629;28;20296;-79
2021/07/27 00:18:18;;;;;;;0.40;0.40;;;15.80;99.90;;;;;;5033424;28;20733;-80
2021/07/27 00:20:45;;;;;;;0.60;0.60;;;15.70;99.90;;;;;;5014645;28;20252;-81
2021/07/27 00:23:11;;;;;;;0.75;0.75;;;15.60;99.90;;;;;;5014834;28;20233;-79
2021/07/27 00:25:39;;;;;;;0.73;0.73;;;15.60;99.90;;;;;;5011317;28;20214;-80
2021/07/27 00:28:04;;;;;;;0.70;0.65;;;15.60;99.90;;;;;;5017256;28;20198;-80
2021/07/27 00:30:30;;;;;;;0.40;0.40;;;15.50;99.90;;;;;;5015580;28;20684;-81
2021/07/27 00:32:56;;;;;;;1.23;1.13;;;15.40;99.90;;;;;;5020015;28;20216;-82
2021/07/27 00:35:22;;;;;;;0.98;0.93;;;15.40;99.90;;;;;;5013733;28;20288;-80
2021/07/27 00:37:57;;;;;;;0.85;0.85;;;15.40;99.90;;;;;;5012776;28;20226;-80
2021/07/27 00:40:23;;;;;;;0.50;0.50;;;15.30;99.90;;;;;;5015825;28;20201;-80
2021/07/27 00:42:49;;;;;;;0.50;0.50;;;15.30;99.90;;;;;;5015513;28;20195;-80
2021/07/27 00:45:16;;;;;;;1.95;1.50;;;15.30;99.90;;;;;;5014842;28;20197;-80
2021/07/27 00:47:42;;;;;;;2.80;0.93;;;15.30;99.90;;;;;;5018413;28;20230;-81
2021/07/27 00:50:09;;;;;;;0.85;0.73;;;15.20;99.90;;;;;;5013346;28;20198;-80
2021/07/27 00:52:36;;;;;;;32.17;1.73;;;15.20;99.90;;;;;;5021341;28;20491;-80
2021/07/27 00:55:03;;;;;;;0.52;0.52;;;15.10;99.90;;;;;;5013029;28;20232;-81
2021/07/27 00:57:30;;;;;;;0.52;0.52;;;15.10;99.90;;;;;;5017462;28;20225;-81
2021/07/27 00:59:56;;;;;;;0.77;0.50;;;15.00;99.90;;;;;;5013010;28;20277;-81
2021/07/27 01:02:22;;;;;;;0.57;0.57;;;15.00;99.90;;;;;;5022339;22;20798;-73
2021/07/27 01:04:48;;;;;;;1.05;0.93;;;15.00;99.90;;;;;;4995308;28;20199;-74
2021/07/27 01:07:14;;;;;;;0.73;0.73;;;15.00;99.90;;;;;;4993158;28;20203;-73
2021/07/27 01:09:40;;;;;;;0.50;0.50;;;14.90;99.90;;;;;;4991468;28;20221;-76
2021/07/27 01:12:06;;;;;;;0.50;0.50;;;14.90;99.90;;;;;;4990870;28;20227;-76
2021/07/27 01:14:32;;;;;;;1.33;1.23;;;14.80;99.90;;;;;;4993937;28;21051;-75
2021/07/27 01:16:58;;;;;;;0.95;0.88;;;14.80;99.90;;;;;;4994664;28;20187;-73
2021/07/27 01:42:03;;;;;;;3.53;1.17;;;14.80;99.90;;;;;;4999375;28;20254;-75
2021/07/27 01:43:45;;;;;;;0.50;0.50;;;14.90;99.90;;;;;;4991007;28;20233;-75
2021/07/27 01:46:12;;;;;;;0.80;0.75;;;14.90;99.90;;;;;;4989071;28;20238;-75
2021/07/27 01:48:38;;;;;;;0.70;0.70;;;14.90;99.90;;;;;;4998135;28;20229;-75
2021/07/27 01:51:04;;;;;;;1.25;0.88;;;14.90;99.90;;;;;;4992518;28;20194;-75
2021/07/27 01:53:47;;;;;;;0.50;0.50;;;14.90;99.90;;;;;;4993532;28;20200;-75
2021/07/27 01:56:14;;;;;;;0.65;0.65;;;14.90;99.90;;;;;;4995100;28;20681;-75
2021/07/27 01:58:40;;;;;;;0.75;0.75;;;14.90;99.90;;;;;;4985369;28;20241;-75
2021/07/27 02:01:05;;;;;;;0.82;0.82;;;14.90;99.90;;;;;;4985675;28;20202;-75
2021/07/27 02:03:31;;;;;;;2.88;0.55;;;14.90;99.90;;;;;;4997647;28;20223;-75
2021/07/27 02:05:57;;;;;;;0.52;0.52;;;14.90;99.90;;;;;;4992248;28;20229;-75
2021/07/27 02:08:22;;;;;;;2.30;1.05;;;14.90;99.90;;;;;;4991624;28;20668;-75
2021/07/27 02:11:01;;;;;;;0.60;0.60;;;14.90;99.90;;;;;;4992467;28;20573;-75
2021/07/27 02:13:31;;;;;;;0.55;0.55;;;15.00;99.90;;;;;;4992355;28;20194;-75
2021/07/27 02:15:59;;;;;;;0.90;0.70;;;15.00;99.90;;;;;;5007449;28;20206;-74
2021/07/27 02:18:25;;;;;;;1.10;0.95;;;15.00;99.90;;;;;;4989235;28;20190;-74
2021/07/27 02:20:51;;;;;;;1.13;0.85;;;15.10;99.90;;;;;;4990655;28;20226;-74
2021/07/27 02:23:17;;;;;;;0.57;0.57;;;15.10;99.90;;;;;;4991311;28;20257;-75
2021/07/27 02:25:43;;;;;;;0.60;0.60;;;15.20;99.90;;;;;;4990262;28;20205;-75
2021/07/27 02:28:12;;;;;;;0.40;0.40;;;15.20;99.90;;;;;;4996619;28;20194;-75
2021/07/27 02:30:41;;;;;;;0.40;0.40;;;15.30;99.90;;;;;;4990854;28;20206;-74
2021/07/27 02:33:07;;;;;;;0.80;0.80;;;15.30;99.90;;;;;;4989778;28;20646;-74
2021/07/27 02:35:38;;;;;;;0.73;0.73;;;15.30;99.90;;;;;;5003835;28;20203;-74
2021/07/27 02:38:03;;;;;;;0.50;0.50;;;15.30;99.90;;;;;;4990810;28;20218;-74
2021/07/27 02:40:33;;;;;;;0.57;0.57;;;15.40;99.90;;;;;;4991339;28;20230;-74
2021/07/27 02:43:01;;;;;;;0.43;0.43;;;15.30;99.90;;;;;;4976451;28;20690;-74
2021/07/27 02:45:27;;;;;;;0.40;0.40;;;15.30;99.90;;;;;;4994054;28;20645;-74
2021/07/27 02:47:52;;;;;;;0.38;0.38;;;15.40;99.90;;;;;;4991701;28;20202;-73
2021/07/27 02:50:18;;;;;;;0.60;0.60;;;15.40;99.90;;;;;;4993688;28;20209;-75
2021/07/27 02:52:44;;;;;;;4.15;1.40;;;15.50;99.90;;;;;;4988865;28;20284;-73
2021/07/27 02:55:11;;;;;;;0.75;0.70;;;15.50;99.90;;;;;;4990464;28;20703;-73
2021/07/27 02:57:38;;;;;;;0.65;0.65;;;15.50;99.90;;;;;;4994953;28;20287;-72
2021/07/27 03:00:05;;;;;;;0.93;0.85;;;15.50;99.90;;;;;;4989428;28;20571;-73
2021/07/27 03:02:43;;;;;;;0.80;0.80;;;15.50;99.90;;;;;;4994358;28;20225;-73
2021/07/27 03:05:10;;;;;;;0.50;0.50;;;15.50;99.90;;;;;;4983813;28;20708;-73
2021/07/27 03:10:17;;;;;;;0.55;0.55;;;15.70;99.90;;;;;;4993593;28;20195;-74
2021/07/27 03:12:44;;;;;;;0.95;0.95;;;15.70;99.90;;;;;;4992532;28;20211;-74
2021/07/27 03:15:11;;;;;;;0.57;0.57;;;15.70;99.90;;;;;;4989552;28;20226;-74
2021/07/27 03:17:37;;;;;;;12.95;1.02;;;15.60;99.90;;;;;;4992354;28;20612;-74
2021/07/27 03:20:07;;;;;;;0.63;0.63;;;15.70;99.90;;;;;;4986450;28;20195;-74
2021/07/27 03:22:33;;;;;;;0.32;0.32;;;15.60;99.90;;;;;;4994245;28;20210;-74
2021/07/27 03:24:58;;;;;;;0.98;0.98;;;15.60;99.90;;;;;;4986185;28;20639;-74
2021/07/27 03:27:24;;;;;;;0.50;0.50;;;15.70;99.90;;;;;;4984488;28;20649;-74
2021/07/27 03:29:50;;;;;;;1.25;1.15;;;15.60;99.90;;;;;;4991009;28;20229;-74
2021/07/27 03:32:15;;;;;;;16.25;1.30;;;15.70;99.90;;;;;;5003061;28;20200;-74
2021/07/27 03:34:42;;;;;;;0.40;0.40;;;15.70;99.90;;;;;;4990548;28;20207;-75
2021/07/27 03:37:11;;;;;;;0.50;0.50;;;15.80;99.90;;;;;;4995169;28;20892;-74
2021/07/27 03:39:36;;;;;;;1.15;1.05;;;15.80;99.90;;;;;;4996856;28;20274;-74
2021/07/27 03:42:02;;;;;;;0.65;0.65;;;15.90;99.90;;;;;;4991292;28;20609;-74
2021/07/27 03:44:28;;;;;;;0.47;0.47;;;15.80;99.90;;;;;;4998843;28;20205;-74
2021/07/27 03:46:54;;;;;;;0.70;0.70;;;15.90;99.90;;;;;;4995677;28;20195;-74
2021/07/27 03:49:20;;;;;;;0.60;0.60;;;15.90;99.90;;;;;;4993706;28;21820;-74
2021/07/27 03:51:48;;;;;;;0.47;0.47;;;15.90;99.90;;;;;;4999324;28;20203;-74
2021/07/27 03:54:14;;;;;;;0.82;0.52;;;15.90;99.90;;;;;;4993579;28;20282;-74
2021/07/27 03:56:40;;;;;;;1.17;1.10;;;15.90;99.90;;;;;;4995258;28;20282;-75
2021/07/27 03:59:05;;;;;;;0.70;0.47;;;16.00;99.90;;;;;;4996945;28;20260;-74
2021/07/27 04:01:31;;;;;;;0.60;0.60;;;16.00;99.90;;;;;;4994920;28;20198;-72
2021/07/27 04:03:57;;;;;;;0.50;0.50;;;16.00;99.90;;;;;;5014060;28;20230;-73
2021/07/27 04:06:22;;;;;;;0.60;0.60;;;16.00;99.90;;;;;;5010604;28;20260;-75
2021/07/27 04:08:48;;;;;;;0.50;0.50;;;16.00;99.90;;;;;;5014515;28;20636;-74
2021/07/27 04:11:14;;;;;;;0.50;0.50;;;16.00;99.90;;;;;;5016863;28;20202;-74
2021/07/27 04:13:40;;;;;;;0.70;0.70;;;16.00;99.90;;;;;;5020966;28;20198;-74
2021/07/27 04:16:06;;;;;;;0.38;0.38;;;16.00;99.90;;;;;;5017328;28;20248;-74
2021/07/27 04:18:32;;;;;;;1.15;0.88;;;16.00;99.90;;;;;;5019491;28;20331;-74
2021/07/27 04:20:59;;;;;;;0.88;0.88;;;16.00;99.90;;;;;;5017377;28;20704;-74
2021/07/27 04:23:25;;;;;;;0.40;0.40;;;16.10;99.90;;;;;;5013867;28;20201;-74
2021/07/27 04:25:50;;;;;;;0.50;0.50;;;16.20;99.90;;;;;;5017289;28;20206;-74
2021/07/27 04:28:16;;;;;;;0.30;0.30;;;16.20;99.90;;;;;;5013478;28;20285;-74
2021/07/27 04:30:42;;;;;;;1.25;1.15;;;16.30;99.90;;;;;;5016155;28;20551;-73
2021/07/27 04:33:08;;;;;;;0.73;0.70;;;16.30;99.90;;;;;;5014136;28;20260;-74
2021/07/27 04:35:33;;;;;;;0.40;0.40;;;16.60;99.90;;;;;;5002064;28;20206;-74
2021/07/27 04:37:59;;;;;;;0.80;0.77;;;16.90;99.90;;;;;;5021324;28;20888;-73
2021/07/27 04:40:25;;;;;;;0.47;0.38;;;17.10;99.90;;;;;;5018190;28;20277;-73
2021/07/27 04:42:50;;;;;;;0.68;0.68;;;17.50;99.90;;;;;;5018492;28;20837;-74
2021/07/27 04:45:16;;;;;;;0.77;0.70;;;17.80;99.90;;;;;;5018064;28;21017;-74
2021/07/27 04:47:42;;;;;;;0.55;0.55;;;18.10;99.90;;;;;;5021490;28;20230;-73
2021/07/27 04:50:08;;;;;;;1.23;1.13;;;18.30;99.90;;;;;;4999182;28;20248;-74
2021/07/27 04:52:35;;;;;;;0.50;0.50;;;18.40;99.90;;;;;;5015916;28;20226;-74
2021/07/27 04:55:01;;;;;;;0.35;0.35;;;18.20;99.90;;;;;;5020276;28;20217;-73
2021/07/27 04:57:27;;;;;;;0.30;0.30;;;17.90;99.90;;;;;;5027341;28;20190;-73
2021/07/27 04:59:52;;;;;;;0.40;0.40;;;17.90;99.90;;;;;;5024458;28;20830;-74
2021/07/27 05:02:18;;;;;;;0.60;0.60;;;18.00;99.90;;;;;;5022319;28;20252;-74
2021/07/27 05:04:47;;;;;;;1.40;1.30;;;18.30;99.90;;;;;;5027091;28;20633;-73
2021/07/27 05:07:12;;;;;;;0.95;0.95;;;18.50;99.90;;;;;;5023987;28;20213;-73
2021/07/27 05:09:38;;;;;;;0.47;0.47;;;18.80;99.90;;;;;;5023688;28;20206;-72
2021/07/27 05:12:04;;;;;;;1.20;0.95;;;19.00;99.90;;;;;;5006957;28;20209;-73
2021/07/27 05:14:30;;;;;;;0.45;0.45;;;18.80;99.90;;;;;;5021417;28;20218;-73
2021/07/27 05:17:04;;;;;;;1.73;1.10;;;18.70;99.90;;;;;;5025552;28;20204;-74
2021/07/27 05:19:30;;;;;;;0.50;0.50;;;18.60;99.90;;;;;;5025340;28;20240;-72
2021/07/27 05:21:56;;;;;;;0.50;0.50;;;18.30;99.90;;;;;;5025907;28;20271;-73
2021/07/27 05:24:22;;;;;;;0.70;0.70;;;18.00;99.90;;;;;;5027779;28;20230;-72
2021/07/27 05:26:47;;;;;;;0.60;0.40;;;18.00;99.90;;;;;;5027562;28;20305;-72
2021/07/27 05:29:15;;;;;;;0.50;0.50;;;17.90;99.90;;;;;;5025791;28;20206;-72
2021/07/27 05:31:41;;;;;;;1.23;0.77;;;18.00;99.90;;;;;;5030300;28;20201;-72
2021/07/27 05:34:08;;;;;;;0.50;0.50;;;18.00;99.90;;;;;;5027480;28;20221;-72
2021/07/27 05:36:35;;;;;;;0.52;0.52;;;18.10;99.90;;;;;;5021952;28;20306;-72
2021/07/27 05:39:01;;;;;;;0.50;0.50;;;18.00;99.90;;;;;;5027066;28;20215;-73
2021/07/27 05:41:27;;;;;;;0.60;0.60;;;18.10;99.90;;;;;;5027573;28;20202;-72
2021/07/27 05:43:53;;;;;;;0.90;0.90;;;18.10;99.90;;;;;;5009325;28;20224;-72
2021/07/27 05:46:18;;;;;;;0.73;0.50;;;18.10;99.90;;;;;;5028374;28;20210;-72
2021/07/27 05:48:46;;;;;;;1.20;0.88;;;18.10;99.90;;;;;;5018391;28;20199;-71
2021/07/27 05:51:14;;;;;;;0.70;0.70;;;18.30;99.90;;;;;;5014468;28;20707;-71
2021/07/27 05:53:41;;;;;;;3.50;0.85;;;18.50;99.90;;;;;;5018691;28;20201;-72
2021/07/27 05:56:07;;;;;;;0.55;0.55;;;18.40;99.90;;;;;;5006349;28;20739;-73
2021/07/27 05:58:33;;;;;;;4.47;0.90;;;18.30;99.90;;;;;;5023026;28;20193;-72
2021/07/27 06:00:59;;;;;;;1.85;0.93;;;18.30;99.90;;;;;;5019737;28;20190;-72
2021/07/27 06:03:24;;;;;;;0.32;0.32;;;18.30;99.90;;;;;;5016241;28;20598;-73
2021/07/27 06:05:51;;;;;;;6.13;1.13;;;18.40;99.90;;;;;;5019799;28;20680;-72
2021/07/27 06:08:16;;;;;;;1.40;0.93;;;18.40;99.90;;;;;;5024097;28;20198;-72
2021/07/27 06:10:42;;;;;;;1.33;0.57;;;18.40;99.90;;;;;;5017442;28;20202;-73
2021/07/27 06:13:08;;;;;;;0.32;0.32;;;18.40;99.90;;;;;;5021599;28;20607;-73
2021/07/27 06:15:33;;;;;;;0.82;0.52;;;18.50;99.90;;;;;;5020429;28;20214;-73
2021/07/27 06:17:59;;;;;;;1.15;0.73;;;18.40;99.90;;;;;;5023799;28;20257;-73
2021/07/27 06:20:25;;;;;;;0.47;0.47;;;18.30;99.90;;;;;;5020868;28;20548;-74
2021/07/27 06:22:51;;;;;;;0.38;0.38;;;18.20;99.90;;;;;;5018381;28;20205;-73
2021/07/27 06:25:16;;;;;;;0.68;0.68;;;18.30;99.90;;;;;;5003318;28;20213;-73
2021/07/27 06:27:42;;;;;;;0.52;0.52;;;18.40;99.90;;;;;;5013371;28;20203;-73
2021/07/27 06:30:10;;;;;;;1.75;0.88;;;18.60;99.90;;;;;;5004760;28;20206;-73
2021/07/27 06:32:36;;;;;;;0.45;0.45;;;18.70;99.90;;;;;;5006182;28;21825;-73
2021/07/27 06:35:02;;;;;;;1.05;0.93;;;19.00;99.90;;;;;;5022771;28;20238;-74
2021/07/27 06:37:27;;;;;;;0.63;0.63;;;19.20;99.90;;;;;;5019486;28;20202;-73
2021/07/27 06:39:53;;;;;;;0.40;0.40;;;19.30;99.90;;;;;;5021185;28;20958;-73
2021/07/27 06:42:19;;;;;;;0.30;0.30;;;19.50;99.90;;;;;;5005691;28;20221;-73
2021/07/27 06:44:44;;;;;;;1.08;0.60;;;19.60;99.90;;;;;;5016404;28;20209;-73
2021/07/27 06:47:10;;;;;;;0.32;0.32;;;19.60;99.90;;;;;;5023613;28;20206;-73
2021/07/27 06:49:36;;;;;;;0.52;0.50;;;19.30;99.90;;;;;;5019195;28;20202;-73
2021/07/27 06:52:02;;;;;;;2.28;0.88;;;19.10;99.90;;;;;;5020573;28;20251;-73
2021/07/27 06:54:28;;;;;;;0.47;0.47;;;19.10;99.90;;;;;;5004822;28;20209;-73
2021/07/27 06:56:57;;;;;;;1.38;0.73;;;19.00;99.90;;;;;;5016786;28;20857;-73
2021/07/27 06:59:23;;;;;;;1.85;1.05;;;19.00;99.90;;;;;;5020176;28;20209;-73
2021/07/27 07:01:50;;;;;;;0.63;0.60;;;18.80;99.90;;;;;;5021549;28;20249;-74
2021/07/27 07:04:16;;;;;;;0.65;0.65;;;18.70;99.90;;;;;;4997059;28;20218;-73
2021/07/27 07:06:41;;;;;;;0.40;0.40;;;18.60;99.90;;;;;;5005008;28;20199;-73
2021/07/27 07:09:07;;;;;;;1.48;1.35;;;18.40;99.90;;;;;;5005128;28;20374;-73
2021/07/27 07:11:33;;;;;;;0.80;0.80;;;18.50;99.90;;;;;;5008049;28;20676;-73
2021/07/27 07:13:59;;;;;;;0.35;0.35;;;18.50;99.90;;;;;;5021562;28;20211;-73
2021/07/27 07:16:24;;;;;;;1.52;0.85;;;18.60;99.90;;;;;;5006609;28;20214;-73
2021/07/27 07:18:50;;;;;;;0.60;0.60;;;18.50;99.90;;;;;;5008252;28;20191;-73
2021/07/27 07:21:16;;;;;;;0.40;0.40;;;18.50;99.90;;;;;;5007895;28;20244;-73
2021/07/27 07:23:41;;;;;;;0.57;0.57;;;18.40;99.90;;;;;;5007420;28;20203;-73
2021/07/27 07:26:10;;;;;;;0.68;0.68;;;18.40;99.90;;;;;;5008028;28;20203;-73
2021/07/27 07:28:39;;;;;;;0.60;0.60;;;18.50;99.90;;;;;;5009664;28;20301;-73
2021/07/27 07:31:16;;;;;;;0.40;0.40;;;18.80;99.90;;;;;;5007522;28;20234;-73
2021/07/27 07:33:43;;;;;;;0.65;0.47;;;18.90;99.90;;;;;;5004534;28;20198;-73
2021/07/27 07:36:12;;;;;;;0.38;0.38;;;19.20;99.90;;;;;;5006961;28;20218;-74
2021/07/27 07:38:39;;;;;;;3.70;1.38;;;19.50;99.90;;;;;;5006660;28;20206;-73
2021/07/27 07:41:07;;;;;;;0.85;0.50;;;19.80;99.90;;;;;;5007222;28;20248;-73
2021/07/27 07:43:33;;;;;;;0.43;0.43;;;20.00;99.90;;;;;;5007926;28;20263;-74
2021/07/27 07:45:59;;;;;;;1.10;1.00;;;20.30;99.90;;;;;;5006698;28;20583;-73
2021/07/27 07:48:24;;;;;;;0.30;0.30;;;20.30;99.90;;;;;;5008553;28;20233;-74
2021/07/27 07:50:50;;;;;;;0.40;0.40;;;20.30;99.90;;;;;;5004726;28;20195;-74
2021/07/27 07:53:16;;;;;;;0.65;0.65;;;20.40;99.90;;;;;;5008582;28;20195;-74
2021/07/27 07:55:41;;;;;;;1.55;1.15;;;20.60;99.90;;;;;;5005879;28;20218;-74
2021/07/27 07:58:07;;;;;;;0.50;0.50;;;20.70;99.90;;;;;;5006140;28;20199;-74
2021/07/27 08:00:33;;;;;;;1.00;0.88;;;20.90;99.90;;;;;;5010105;28;20195;-73
2021/07/27 08:03:02;;;;;;;0.32;0.32;;;20.80;99.90;;;;;;5018515;28;20214;-74
2021/07/27 08:05:27;;;;;;;0.80;0.80;;;20.80;99.90;;;;;;5018343;28;20198;-73
2021/07/27 08:07:53;;;;;;;0.55;0.55;;;20.70;99.90;;;;;;5019366;28;20268;-73
2021/07/27 08:10:19;;;;;;;1.63;1.20;;;20.70;99.90;;;;;;5018440;28;20206;-72
2021/07/27 08:12:47;;;;;;;0.40;0.40;;;20.40;99.90;;;;;;5019326;28;20285;-74
2021/07/27 08:15:14;;;;;;;0.30;0.30;;;20.20;99.90;;;;;;5020451;28;20720;-74
2021/07/27 08:17:39;;;;;;;0.90;0.63;;;20.20;99.90;;;;;;5026779;28;20594;-75
2021/07/27 08:20:06;;;;;;;0.52;0.52;;;20.10;99.90;;;;;;5014333;28;20285;-75
2021/07/27 08:22:35;;;;;;;1.35;0.75;;;20.00;99.90;;;;;;5031772;28;20554;-74
2021/07/27 08:25:01;;;;;;;2.28;0.65;;;20.00;99.90;;;;;;5030615;28;20230;-75
2021/07/27 08:27:27;;;;;;;0.73;0.60;;;20.00;99.90;;;;;;5030271;28;20225;-75
2021/07/27 08:29:52;;;;;;;0.60;0.60;;;20.00;99.90;;;;;;5023671;28;20508;-75
2021/07/27 08:32:18;;;;;;;0.38;0.38;;;20.00;99.90;;;;;;4963929;28;142683;-75
2021/07/27 08:34:57;;;;;;;0.73;0.50;;;20.10;99.90;;;;;;5048264;27;20565;-74
2021/07/27 08:38:41;;;;;;;0.55;0.55;;;20.20;99.90;;;;;;5048334;28;20557;-74
2021/07/27 08:41:08;;;;;;;0.55;0.55;;;20.40;99.90;;;;;;5044897;28;20256;-74
2021/07/27 08:43:34;;;;;;;2.13;0.60;;;20.40;99.90;;;;;;5030375;28;20243;-74
2021/07/27 08:46:00;;;;;;;0.52;0.52;;;20.50;99.90;;;;;;5029372;28;20286;-74
2021/07/27 08:48:26;;;;;;;1.23;1.02;;;20.70;99.90;;;;;;5029962;28;20552;-74
2021/07/27 08:51:16;;;;;;;0.50;0.50;;;20.60;99.90;;;;;;5073567;27;21078;-74
2021/07/27 08:53:41;;;;;;;1.60;0.82;;;20.50;99.90;;;;;;5068269;28;20250;-75
2021/07/27 08:56:07;;;;;;;1.02;0.90;;;20.70;99.90;;;;;;5069522;28;20597;-75
2021/07/27 08:58:33;;;;;;;3.03;0.50;;;20.90;99.90;;;;;;5067652;28;20671;-70
2021/07/27 09:00:58;;;;;;;1.48;0.68;;;21.00;99.90;;;;;;5040383;28;20233;-71
2021/07/27 09:03:25;;;;;;;0.90;0.63;;;21.00;99.90;;;;;;4991500;28;20214;-70
2021/07/27 09:06:04;;;;;;;0.52;0.52;;;21.00;99.90;;;;;;5024960;28;20639;-71
2021/07/27 09:08:30;;;;;;;0.63;0.63;;;21.00;99.90;;;;;;4990241;28;20203;-71
2021/07/27 09:11:00;;;;;;;0.65;0.65;;;21.10;99.90;;;;;;4991224;28;20735;-71
2021/07/27 09:13:34;;;;;;;0.40;0.40;;;21.20;99.90;;;;;;4990252;28;20207;-71
2021/07/27 09:16:00;;;;;;;0.30;0.30;;;21.20;99.90;;;;;;4990955;28;20283;-71
2021/07/27 09:18:29;;;;;;;0.88;0.70;;;21.30;99.90;;;;;;4990685;28;20619;-71
2021/07/27 09:20:55;;;;;;;0.52;0.52;;;21.50;99.90;;;;;;5001896;28;20199;-71
2021/07/27 09:23:28;;;;;;;0.50;0.40;;;21.50;99.90;;;;;;5008181;28;20214;-71
2021/07/27 09:25:58;;;;;;;0.40;0.40;;;21.40;99.90;;;;;;5008201;28;20203;-71
2021/07/27 09:28:26;;;;;;;1.00;0.90;;;21.50;99.90;;;;;;4990796;28;20671;-71
2021/07/27 09:31:01;;;;;;;0.57;0.57;;;21.60;99.90;;;;;;5008052;28;20253;-71
2021/07/27 09:33:35;;;;;;;1.00;0.85;;;21.80;99.90;;;;;;5007921;28;20202;-71
2021/07/27 09:36:02;;;;;;;0.38;0.38;;;22.10;99.90;;;;;;5007242;28;20234;-71
2021/07/27 09:38:31;;;;;;;14.55;1.65;;;22.40;99.90;;;;;;5007521;28;20207;-72
2021/07/27 09:41:05;;;;;;;1.08;0.85;;;22.60;99.90;;;;;;5007422;28;20215;-71
2021/07/27 09:43:31;;;;;;;1.25;0.73;;;22.70;99.90;;;;;;5007533;28;20294;-71
2021/07/27 09:46:00;;;;;;;6.60;1.42;;;23.20;99.90;;;;;;5007268;28;20214;-71
2021/07/27 09:48:27;;;;;;;0.80;0.55;;;23.50;99.90;;;;;;4992541;28;20218;-71
2021/07/27 09:50:55;;;;;;;1.58;0.90;;;23.50;99.90;;;;;;5003367;28;20309;-71
2021/07/27 09:53:21;;;;;;;1.30;0.65;;;23.20;99.90;;;;;;5007216;28;20429;-71
2021/07/27 09:55:48;;;;;;;1.45;0.93;;;23.10;99.90;;;;;;5007487;28;20226;-71
2021/07/27 09:58:14;;;;;;;7.53;0.47;;;22.80;99.90;;;;;;5003936;28;20219;-71
2021/07/27 10:00:54;;;;;;;0.28;0.28;;;22.60;99.90;;;;;;4988581;28;20220;-71
2021/07/27 10:03:24;;;;;;;1.00;0.57;;;22.50;99.90;;;;;;4987120;28;20261;-71
2021/07/27 10:05:55;;;;;;;1.10;0.77;;;22.50;99.90;;;;;;4985641;28;20669;-71
2021/07/27 10:08:34;;;;;;;0.55;0.38;;;22.80;99.90;;;;;;4977018;28;20262;-71
2021/07/27 10:11:14;;;;;;;4.78;1.13;;;23.00;99.90;;;;;;4988172;28;20523;-71
2021/07/27 10:13:45;;;;;;;1.17;0.70;;;23.40;99.90;;;;;;4982149;28;20604;-71
2021/07/27 10:16:26;;;;;;;0.50;0.47;;;23.30;99.90;;;;;;5003749;28;20219;-72
2021/07/27 10:18:53;;;;;;;1.13;0.82;;;23.30;99.90;;;;;;5005401;28;20231;-72
2021/07/27 10:21:27;;;;;;;0.55;0.30;;;23.30;99.90;;;;;;4994164;28;20195;-72
2021/07/27 10:23:59;;;;;;;0.90;0.90;;;23.50;99.90;;;;;;4994016;28;20200;-72
2021/07/27 10:26:33;;;;;;;0.40;0.40;;;23.80;99.90;;;;;;4993846;28;20235;-71
2021/07/27 10:28:59;;;;;;;0.65;0.55;;;23.80;99.90;;;;;;4993608;28;20294;-72
2021/07/27 10:31:39;;;;;;;1.88;1.25;;;23.60;99.90;;;;;;4993651;28;20208;-72
2021/07/27 10:34:07;;;;;;;0.70;0.60;;;23.40;99.90;;;;;;4982714;28;20553;-72
2021/07/27 10:36:35;;;;;;;0.47;0.47;;;23.20;99.90;;;;;;4987276;28;20616;-72
2021/07/27 10:39:15;;;;;;;0.68;0.50;;;23.40;99.90;;;;;;4990340;28;20290;-72
2021/07/27 10:41:43;;;;;;;0.93;0.93;;;23.70;99.90;;;;;;4993697;28;20215;-71
2021/07/27 10:44:12;;;;;;;0.60;0.35;;;23.80;99.90;;;;;;4993879;28;20685;-71
2021/07/27 10:46:44;;;;;;;0.80;0.70;;;23.90;99.90;;;;;;4993270;28;20208;-71
2021/07/27 10:49:25;;;;;;;5.05;0.68;;;24.10;99.90;;;;;;4988071;28;20231;-71
2021/07/27 10:52:03;;;;;;;2.13;0.90;;;24.10;99.90;;;;;;4993291;28;20203;-72
2021/07/27 10:54:31;;;;;;;2.20;0.73;;;24.00;99.90;;;;;;4992645;28;20206;-71
2021/07/27 10:56:57;;;;;;;0.45;0.45;;;23.70;99.90;;;;;;4983791;28;20671;-72
2021/07/27 10:59:24;;;;;;;2.45;1.02;;;23.50;99.90;;;;;;4992927;28;20239;-71
2021/07/27 11:01:52;;;;;;;0.75;0.75;;;23.70;99.90;;;;;;4993220;28;20254;-69
2021/07/27 11:04:17;;;;;;;0.47;0.45;;;23.60;99.90;;;;;;4992952;28;20286;-71
2021/07/27 11:06:43;;;;;;;0.30;0.30;;;23.50;99.90;;;;;;4992878;28;20246;-71
2021/07/27 11:09:12;;;;;;;0.43;0.43;;;23.40;99.90;;;;;;5024669;28;20314;-71
2021/07/27 11:11:49;;;;;;;0.35;0.35;;;23.30;99.90;;;;;;4993077;28;20887;-72
2021/07/27 11:14:22;;;;;;;0.35;0.35;;;23.30;99.90;;;;;;4991688;28;20207;-72
2021/07/27 11:16:49;;;;;;;7.22;0.40;;;23.40;99.90;;;;;;4991808;28;20213;-73
2021/07/27 11:19:29;;;;;;;0.98;0.82;;;23.30;99.90;;;;;;4992778;28;20207;-73
2021/07/27 11:21:56;;;;;;;0.38;0.38;;;23.30;99.90;;;;;;4993161;28;20217;-74
2021/07/27 11:24:23;;;;;;;0.95;0.65;;;23.20;99.90;;;;;;4992548;28;20204;-73
2021/07/27 11:26:51;;;;;;;0.75;0.68;;;23.20;99.90;;;;;;4992516;28;20207;-73
2021/07/27 11:29:18;;;;;;;1.10;0.80;;;23.40;99.90;;;;;;4992503;28;20215;-74
2021/07/27 11:31:49;;;;;;;0.65;0.57;;;23.50;99.90;;;;;;4992996;28;20226;-74
2021/07/27 11:34:28;;;;;;;1.38;0.52;;;23.60;99.90;;;;;;4992614;28;20200;-74
2021/07/27 11:36:55;;;;;;;0.80;0.77;;;23.60;99.90;;;;;;4992602;28;20281;-74
2021/07/27 11:39:20;;;;;;;0.80;0.50;;;23.80;99.90;;;;;;4989081;28;20235;-74
2021/07/27 11:42:02;;;;;;;1.08;0.85;;;24.10;99.90;;;;;;4978780;28;20232;-74
2021/07/27 11:44:29;;;;;;;1.90;0.50;;;24.10;99.90;;;;;;4988979;28;20255;-73
2021/07/27 11:46:55;;;;;;;0.50;0.50;;;24.10;99.90;;;;;;4978616;28;20263;-73
2021/07/27 11:49:21;;;;;;;0.45;0.45;;;24.10;99.90;;;;;;4991208;28;20236;-74
2021/07/27 11:51:47;;;;;;;0.50;0.50;;;24.00;99.90;;;;;;4992963;28;20206;-73
2021/07/27 11:54:24;;;;;;;0.45;0.45;;;23.80;99.90;;;;;;4993647;28;20195;-73
2021/07/27 11:56:50;;;;;;;0.30;0.30;;;23.80;99.90;;;;;;4992985;28;20210;-74
2021/07/27 11:59:29;;;;;;;0.65;0.60;;;23.90;99.90;;;;;;5024570;28;20263;-75
2021/07/27 12:01:55;;;;;;;1.00;0.95;;;23.80;99.90;;;;;;4975121;28;20208;-72
2021/07/27 12:04:22;;;;;;;1.30;0.90;;;23.90;99.90;;;;;;4976140;28;20184;-74
2021/07/27 12:06:50;;;;;;;0.80;0.68;;;23.80;99.90;;;;;;4991341;28;20256;-73
2021/07/27 12:09:16;;;;;;;0.80;0.73;;;24.00;99.90;;;;;;4975955;28;20207;-73
2021/07/27 12:11:42;;;;;;;2.50;1.27;;;24.30;99.90;;;;;;4992113;28;20203;-74
2021/07/27 12:14:08;;;;;;;0.82;0.52;;;24.50;99.90;;;;;;4991933;28;20203;-74
2021/07/27 12:16:34;;;;;;;0.47;0.47;;;24.70;99.90;;;;;;4991532;28;20199;-76
2021/07/27 12:18:59;;;;;;;1.35;0.80;;;25.10;99.90;;;;;;4992003;28;20203;-75
2021/07/27 12:21:25;;;;;;;1.45;0.98;;;25.30;99.90;;;;;;5011657;28;20262;-75
2021/07/27 12:23:51;;;;;;;0.30;0.30;;;25.50;99.90;;;;;;4987086;28;20658;-76
2021/07/27 12:26:16;;;;;;;0.60;0.47;;;25.60;99.90;;;;;;4991845;28;20211;-75
2021/07/27 12:28:42;;;;;;;0.63;0.63;;;25.90;99.90;;;;;;4991666;28;20615;-76
2021/07/27 12:31:08;;;;;;;0.80;0.75;;;26.30;99.90;;;;;;4983570;28;20208;-76
2021/07/27 12:33:34;;;;;;;0.60;0.60;;;26.70;99.90;;;;;;4982402;28;20666;-75
2021/07/27 12:36:03;;;;;;;0.60;0.60;;;26.80;99.90;;;;;;4991839;28;20734;-75
2021/07/27 12:38:29;;;;;;;0.68;0.68;;;26.60;99.90;;;;;;4991377;28;20290;-76
2021/07/27 12:40:55;;;;;;;0.40;0.40;;;26.50;99.90;;;;;;4991677;28;20294;-76
2021/07/27 12:43:22;;;;;;;3.33;0.75;;;26.40;99.90;;;;;;4991295;28;20241;-76
2021/07/27 12:45:48;;;;;;;0.57;0.57;;;26.30;99.90;;;;;;4991631;28;20753;-76
2021/07/27 12:48:15;;;;;;;0.73;0.73;;;26.30;99.90;;;;;;4991606;28;20282;-76
2021/07/27 12:50:40;;;;;;;0.52;0.52;;;26.20;99.90;;;;;;4989821;28;20232;-76
2021/07/27 12:53:06;;;;;;;2.13;1.73;;;26.10;99.90;;;;;;4975709;28;20708;-75
2021/07/27 12:55:35;;;;;;;0.73;0.57;;;26.00;99.90;;;;;;4991297;28;20222;-75
2021/07/27 12:58:01;;;;;;;1.60;1.30;;;26.00;99.90;;;;;;4975558;28;20200;-75
2021/07/27 13:00:27;;;;;;;1.08;0.50;;;26.00;99.90;;;;;;4991423;28;20670;-76
2021/07/27 13:02:52;;;;;;;1.85;0.80;;;26.30;99.90;;;;;;4991972;28;20207;-76
2021/07/27 13:05:18;;;;;;;0.75;0.70;;;26.50;99.90;;;;;;4974568;28;20207;-75
2021/07/27 13:07:44;;;;;;;2.78;0.80;;;26.60;99.90;;;;;;4975296;28;20717;-75
2021/07/27 13:10:10;;;;;;;0.85;0.60;;;26.60;99.90;;;;;;4989750;28;20219;-76
2021/07/27 13:12:36;;;;;;;1.58;1.13;;;26.50;99.90;;;;;;4991469;28;20250;-75